sensor_id;sensor_type;location;lat;lon;timestamp;pressure;altitude;pressure_sealevel;temperature;humidity
48874;BME280;66155;46.204;5.220;2024-01-27T00:01:10;100323.38;;;9.38;77.20
48874;BME280;66155;46.204;5.220;2024-01-27T00:06:11;100313.13;;;9.31;77.07
48874;BME280;66155;46.204;5.220;2024-01-27T00:11:11;100320.66;;;9.34;77.05
48874;BME280;66155;46.204;5.220;2024-01-27T00:16:12;100313.91;;;9.35;77.25
48874;BME280;66155;46.204;5.220;2024-01-27T00:21:13;100318.66;;;9.38;77.15
48874;BME280;66155;46.204;5.220;2024-01-27T00:26:13;100318.25;;;9.36;77.16
48874;BME280;66155;46.204;5.220;2024-01-27T00:31:14;100308.78;;;9.33;77.04
48874;BME280;66155;46.204;5.220;2024-01-27T00:36:14;100310.78;;;9.33;76.83
48874;BME280;66155;46.204;5.220;2024-01-27T00:41:16;100298.94;;;9.29;76.98
48874;BME280;66155;46.204;5.220;2024-01-27T00:46:17;100302.13;;;9.24;77.02
48874;BME280;66155;46.204;5.220;2024-01-27T00:51:17;100311.59;;;9.19;77.00
48874;BME280;66155;46.204;5.220;2024-01-27T00:56:18;100321.91;;;9.12;77.49
48874;BME280;66155;46.204;5.220;2024-01-27T01:01:18;100312.03;;;9.14;77.13
48874;BME280;66155;46.204;5.220;2024-01-27T01:06:19;100323.06;;;9.14;76.88
48874;BME280;66155;46.204;5.220;2024-01-27T01:11:19;100309.69;;;9.09;76.63
48874;BME280;66155;46.204;5.220;2024-01-27T01:16:20;100315.25;;;9.06;77.08
48874;BME280;66155;46.204;5.220;2024-01-27T01:21:20;100321.56;;;8.99;77.32
48874;BME280;66155;46.204;5.220;2024-01-27T01:26:20;100322.75;;;8.95;76.80
48874;BME280;66155;46.204;5.220;2024-01-27T01:31:21;100320.78;;;8.92;76.79
48874;BME280;66155;46.204;5.220;2024-01-27T01:36:21;100318.44;;;8.86;76.94
48874;BME280;66155;46.204;5.220;2024-01-27T01:41:22;100309.78;;;8.81;76.84
48874;BME280;66155;46.204;5.220;2024-01-27T01:46:22;100319.28;;;8.69;76.90
48874;BME280;66155;46.204;5.220;2024-01-27T01:51:27;100318.50;;;8.58;77.27
48874;BME280;66155;46.204;5.220;2024-01-27T01:56:30;100324.84;;;8.48;76.74
48874;BME280;66155;46.204;5.220;2024-01-27T02:01:30;100332.34;;;8.40;77.05
48874;BME280;66155;46.204;5.220;2024-01-27T02:06:31;100323.66;;;8.35;76.86
48874;BME280;66155;46.204;5.220;2024-01-27T02:11:32;100335.50;;;8.32;76.72
48874;BME280;66155;46.204;5.220;2024-01-27T02:16:32;100327.59;;;8.30;76.69
48874;BME280;66155;46.204;5.220;2024-01-27T02:21:33;100322.84;;;8.24;76.54
48874;BME280;66155;46.204;5.220;2024-01-27T02:26:33;100323.25;;;8.22;76.57
48874;BME280;66155;46.204;5.220;2024-01-27T02:31:34;100329.97;;;8.25;76.36
48874;BME280;66155;46.204;5.220;2024-01-27T02:36:34;100322.84;;;8.27;76.50
48874;BME280;66155;46.204;5.220;2024-01-27T02:41:35;100330.78;;;8.29;76.25
48874;BME280;66155;46.204;5.220;2024-01-27T02:46:39;100333.53;;;8.32;75.94
48874;BME280;66155;46.204;5.220;2024-01-27T02:51:39;100339.81;;;8.29;76.09
48874;BME280;66155;46.204;5.220;2024-01-27T02:56:40;100339.00;;;8.11;76.15
48874;BME280;66155;46.204;5.220;2024-01-27T03:01:40;100336.66;;;7.92;76.41
48874;BME280;66155;46.204;5.220;2024-01-27T03:06:40;100334.66;;;7.85;76.46
48874;BME280;66155;46.204;5.220;2024-01-27T03:11:41;100337.78;;;7.73;76.26
48874;BME280;66155;46.204;5.220;2024-01-27T03:16:43;100335.38;;;7.61;76.51
48874;BME280;66155;46.204;5.220;2024-01-27T03:21:43;100327.09;;;7.43;76.15
48874;BME280;66155;46.204;5.220;2024-01-27T03:26:43;100337.66;;;7.27;76.57
48874;BME280;66155;46.204;5.220;2024-01-27T03:31:44;100336.41;;;7.11;76.28
48874;BME280;66155;46.204;5.220;2024-01-27T03:36:48;100331.25;;;7.02;76.38
48874;BME280;66155;46.204;5.220;2024-01-27T03:41:48;100332.38;;;6.90;76.73
48874;BME280;66155;46.204;5.220;2024-01-27T03:46:48;100348.09;;;6.90;76.39
48874;BME280;66155;46.204;5.220;2024-01-27T03:51:49;100341.00;;;6.89;76.36
48874;BME280;66155;46.204;5.220;2024-01-27T03:56:49;100342.59;;;6.90;76.40
48874;BME280;66155;46.204;5.220;2024-01-27T04:01:50;100340.59;;;6.83;76.46
48874;BME280;66155;46.204;5.220;2024-01-27T04:06:50;100331.06;;;6.70;76.72
48874;BME280;66155;46.204;5.220;2024-01-27T04:11:51;100332.56;;;6.61;76.56
48874;BME280;66155;46.204;5.220;2024-01-27T04:16:51;100340.44;;;6.55;76.63
48874;BME280;66155;46.204;5.220;2024-01-27T04:21:52;100344.69;;;6.49;76.81
48874;BME280;66155;46.204;5.220;2024-01-27T04:26:52;100339.13;;;6.38;76.95
48874;BME280;66155;46.204;5.220;2024-01-27T04:31:53;100341.91;;;6.42;76.67
48874;BME280;66155;46.204;5.220;2024-01-27T04:36:53;100341.38;;;6.26;77.23
48874;BME280;66155;46.204;5.220;2024-01-27T04:41:53;100344.50;;;6.24;77.78
48874;BME280;66155;46.204;5.220;2024-01-27T04:46:54;100345.66;;;6.23;77.03
48874;BME280;66155;46.204;5.220;2024-01-27T04:51:54;100339.28;;;6.12;78.04
48874;BME280;66155;46.204;5.220;2024-01-27T04:56:55;100342.38;;;6.07;77.47
48874;BME280;66155;46.204;5.220;2024-01-27T05:01:55;100334.94;;;6.07;77.34
48874;BME280;66155;46.204;5.220;2024-01-27T05:06:56;100343.16;;;6.04;77.50
48874;BME280;66155;46.204;5.220;2024-01-27T05:11:56;100334.50;;;6.02;77.32
48874;BME280;66155;46.204;5.220;2024-01-27T05:16:56;100339.56;;;6.00;77.83
48874;BME280;66155;46.204;5.220;2024-01-27T05:21:57;100338.00;;;5.99;77.63
48874;BME280;66155;46.204;5.220;2024-01-27T05:26:57;100334.38;;;5.91;78.15
48874;BME280;66155;46.204;5.220;2024-01-27T05:31:58;100328.53;;;5.93;77.60
48874;BME280;66155;46.204;5.220;2024-01-27T05:36:58;100327.78;;;5.99;77.88
48874;BME280;66155;46.204;5.220;2024-01-27T05:41:59;100324.28;;;6.02;77.90
48874;BME280;66155;46.204;5.220;2024-01-27T05:46:59;100330.53;;;5.99;78.09
48874;BME280;66155;46.204;5.220;2024-01-27T05:52:00;100330.13;;;5.97;77.79
48874;BME280;66155;46.204;5.220;2024-01-27T05:57:01;100329.78;;;6.02;77.91
48874;BME280;66155;46.204;5.220;2024-01-27T06:02:03;100331.78;;;6.05;77.94
48874;BME280;66155;46.204;5.220;2024-01-27T06:07:04;100327.38;;;5.97;78.07
48874;BME280;66155;46.204;5.220;2024-01-27T06:12:05;100326.03;;;5.81;78.50
48874;BME280;66155;46.204;5.220;2024-01-27T06:17:05;100340.06;;;5.72;80.01
48874;BME280;66155;46.204;5.220;2024-01-27T06:22:06;100319.97;;;5.64;79.55
48874;BME280;66155;46.204;5.220;2024-01-27T06:27:06;100333.38;;;5.70;78.87
48874;BME280;66155;46.204;5.220;2024-01-27T06:32:06;100341.66;;;5.73;79.49
48874;BME280;66155;46.204;5.220;2024-01-27T06:37:07;100328.56;;;5.59;79.48
48874;BME280;66155;46.204;5.220;2024-01-27T06:42:07;100339.88;;;5.54;80.05
48874;BME280;66155;46.204;5.220;2024-01-27T06:47:08;100340.19;;;5.46;80.34
48874;BME280;66155;46.204;5.220;2024-01-27T06:52:08;100337.78;;;5.41;79.86
48874;BME280;66155;46.204;5.220;2024-01-27T06:57:20;100334.59;;;5.39;80.71
48874;BME280;66155;46.204;5.220;2024-01-27T07:02:28;100345.50;;;5.32;79.88
48874;BME280;66155;46.204;5.220;2024-01-27T07:07:31;100344.56;;;5.17;81.13
48874;BME280;66155;46.204;5.220;2024-01-27T07:12:31;100352.69;;;5.10;81.01
48874;BME280;66155;46.204;5.220;2024-01-27T07:17:32;100357.78;;;5.08;80.43
48874;BME280;66155;46.204;5.220;2024-01-27T07:22:32;100362.00;;;5.02;81.45
48874;BME280;66155;46.204;5.220;2024-01-27T07:27:33;100378.44;;;4.98;81.18
48874;BME280;66155;46.204;5.220;2024-01-27T07:32:34;100364.63;;;4.91;80.65
48874;BME280;66155;46.204;5.220;2024-01-27T07:37:35;100366.97;;;4.89;81.01
48874;BME280;66155;46.204;5.220;2024-01-27T07:42:35;100381.00;;;4.84;82.08
48874;BME280;66155;46.204;5.220;2024-01-27T07:47:37;100375.19;;;4.63;82.27
48874;BME280;66155;46.204;5.220;2024-01-27T07:52:38;100376.97;;;4.52;81.29
48874;BME280;66155;46.204;5.220;2024-01-27T07:57:38;100379.44;;;4.34;82.16
48874;BME280;66155;46.204;5.220;2024-01-27T08:02:39;100381.63;;;4.25;83.13
48874;BME280;66155;46.204;5.220;2024-01-27T08:07:39;100382.38;;;4.22;82.40
48874;BME280;66155;46.204;5.220;2024-01-27T08:12:39;100387.06;;;4.21;82.26
48874;BME280;66155;46.204;5.220;2024-01-27T08:17:41;100377.63;;;4.19;82.09
48874;BME280;66155;46.204;5.220;2024-01-27T08:22:42;100380.38;;;4.19;82.33
48874;BME280;66155;46.204;5.220;2024-01-27T08:27:45;100378.88;;;4.25;81.65
48874;BME280;66155;46.204;5.220;2024-01-27T08:32:46;100379.81;;;4.33;81.88
48874;BME280;66155;46.204;5.220;2024-01-27T08:37:46;100381.03;;;4.35;81.14
48874;BME280;66155;46.204;5.220;2024-01-27T08:42:47;100382.47;;;4.29;81.48
48874;BME280;66155;46.204;5.220;2024-01-27T08:47:47;100385.97;;;4.26;82.76
48874;BME280;66155;46.204;5.220;2024-01-27T08:52:47;100390.72;;;4.29;82.19
48874;BME280;66155;46.204;5.220;2024-01-27T08:57:48;100384.25;;;4.41;80.88
48874;BME280;66155;46.204;5.220;2024-01-27T09:02:49;100387.31;;;4.62;80.39
48874;BME280;66155;46.204;5.220;2024-01-27T09:07:49;100393.44;;;4.78;79.96
48874;BME280;66155;46.204;5.220;2024-01-27T09:12:50;100388.00;;;4.82;80.02
48874;BME280;66155;46.204;5.220;2024-01-27T09:17:50;100387.50;;;4.73;80.30
48874;BME280;66155;46.204;5.220;2024-01-27T09:22:51;100384.84;;;4.80;80.40
48874;BME280;66155;46.204;5.220;2024-01-27T09:27:53;100388.84;;;4.86;80.32
48874;BME280;66155;46.204;5.220;2024-01-27T09:32:53;100396.19;;;4.78;80.42
48874;BME280;66155;46.204;5.220;2024-01-27T09:37:54;100384.31;;;4.70;80.71
48874;BME280;66155;46.204;5.220;2024-01-27T09:42:57;100387.72;;;4.90;80.70
48874;BME280;66155;46.204;5.220;2024-01-27T09:47:59;100384.88;;;5.09;79.80
48874;BME280;66155;46.204;5.220;2024-01-27T09:53:00;100390.75;;;5.08;79.65
48874;BME280;66155;46.204;5.220;2024-01-27T09:58:01;100401.13;;;5.22;79.82
48874;BME280;66155;46.204;5.220;2024-01-27T10:03:03;100377.03;;;5.41;79.62
48874;BME280;66155;46.204;5.220;2024-01-27T10:08:06;100391.06;;;5.66;79.12
48874;BME280;66155;46.204;5.220;2024-01-27T10:13:08;100391.97;;;5.77;78.93
48874;BME280;66155;46.204;5.220;2024-01-27T10:18:10;100399.06;;;5.78;78.77
48874;BME280;66155;46.204;5.220;2024-01-27T10:23:13;100392.34;;;5.76;79.19
48874;BME280;66155;46.204;5.220;2024-01-27T10:28:13;100401.22;;;5.95;79.12
48874;BME280;66155;46.204;5.220;2024-01-27T10:33:14;100401.72;;;6.04;78.29
48874;BME280;66155;46.204;5.220;2024-01-27T10:38:15;100406.38;;;6.00;78.06
48874;BME280;66155;46.204;5.220;2024-01-27T10:43:17;100401.31;;;6.02;78.71
48874;BME280;66155;46.204;5.220;2024-01-27T10:48:19;100402.19;;;6.14;78.73
48874;BME280;66155;46.204;5.220;2024-01-27T10:53:23;100394.00;;;6.21;78.18
48874;BME280;66155;46.204;5.220;2024-01-27T10:58:24;100377.09;;;6.19;77.10
48874;BME280;66155;46.204;5.220;2024-01-27T11:03:25;100380.25;;;6.21;78.51
48874;BME280;66155;46.204;5.220;2024-01-27T11:08:28;100370.81;;;6.22;78.63
48874;BME280;66155;46.204;5.220;2024-01-27T11:13:30;100357.91;;;6.29;77.49
48874;BME280;66155;46.204;5.220;2024-01-27T11:18:32;100370.09;;;6.32;78.42
48874;BME280;66155;46.204;5.220;2024-01-27T11:23:34;100362.31;;;6.37;78.24
48874;BME280;66155;46.204;5.220;2024-01-27T11:28:37;100374.94;;;6.45;77.98
48874;BME280;66155;46.204;5.220;2024-01-27T11:33:42;100370.19;;;6.39;77.37
48874;BME280;66155;46.204;5.220;2024-01-27T11:38:43;100365.50;;;6.43;78.28
48874;BME280;66155;46.204;5.220;2024-01-27T11:43:54;100354.44;;;6.39;77.92
48874;BME280;66155;46.204;5.220;2024-01-27T11:48:55;100345.03;;;6.40;77.26
48874;BME280;66155;46.204;5.220;2024-01-27T11:53:56;100338.59;;;6.22;77.42
48874;BME280;66155;46.204;5.220;2024-01-27T11:58:56;100334.25;;;6.21;78.01
48874;BME280;66155;46.204;5.220;2024-01-27T12:03:56;100322.66;;;6.49;77.88
48874;BME280;66155;46.204;5.220;2024-01-27T12:08:57;100332.69;;;6.75;77.49
48874;BME280;66155;46.204;5.220;2024-01-27T12:13:57;100314.03;;;6.47;76.90
48874;BME280;66155;46.204;5.220;2024-01-27T12:18:58;100310.09;;;6.51;78.14
48874;BME280;66155;46.204;5.220;2024-01-27T12:23:59;100308.56;;;6.54;77.27
48874;BME280;66155;46.204;5.220;2024-01-27T12:29:00;100313.72;;;6.59;77.34
48874;BME280;66155;46.204;5.220;2024-01-27T12:34:00;100311.31;;;6.54;77.48
48874;BME280;66155;46.204;5.220;2024-01-27T12:39:02;100311.97;;;6.37;78.08
48874;BME280;66155;46.204;5.220;2024-01-27T12:44:06;100317.84;;;6.35;77.62
48874;BME280;66155;46.204;5.220;2024-01-27T12:49:07;100313.94;;;6.36;77.44
48874;BME280;66155;46.204;5.220;2024-01-27T12:54:08;100325.38;;;6.42;77.47
48874;BME280;66155;46.204;5.220;2024-01-27T12:59:12;100316.31;;;6.38;77.25
48874;BME280;66155;46.204;5.220;2024-01-27T13:04:14;100304.13;;;6.39;77.39
48874;BME280;66155;46.204;5.220;2024-01-27T13:09:14;100303.78;;;6.47;77.40
48874;BME280;66155;46.204;5.220;2024-01-27T13:14:15;100316.03;;;6.53;77.24
48874;BME280;66155;46.204;5.220;2024-01-27T13:19:18;100310.84;;;6.45;76.98
48874;BME280;66155;46.204;5.220;2024-01-27T13:24:18;100293.97;;;6.46;77.52
48874;BME280;66155;46.204;5.220;2024-01-27T13:29:20;100290.94;;;6.66;77.36
48874;BME280;66155;46.204;5.220;2024-01-27T13:34:20;100283.94;;;6.82;76.81
48874;BME280;66155;46.204;5.220;2024-01-27T13:39:21;100278.09;;;6.98;76.57
48874;BME280;66155;46.204;5.220;2024-01-27T13:44:21;100250.56;;;7.05;76.84
48874;BME280;66155;46.204;5.220;2024-01-27T13:49:22;100245.13;;;7.19;75.94
48874;BME280;66155;46.204;5.220;2024-01-27T13:54:22;100241.97;;;7.21;76.24
48874;BME280;66155;46.204;5.220;2024-01-27T13:59:23;100247.03;;;7.08;76.54
48874;BME280;66155;46.204;5.220;2024-01-27T14:04:24;100244.69;;;7.10;76.92
48874;BME280;66155;46.204;5.220;2024-01-27T14:09:25;100243.13;;;7.16;77.06
48874;BME280;66155;46.204;5.220;2024-01-27T14:14:27;100240.34;;;7.13;76.96
48874;BME280;66155;46.204;5.220;2024-01-27T14:19:27;100244.75;;;7.28;77.06
48874;BME280;66155;46.204;5.220;2024-01-27T14:24:28;100252.25;;;7.41;76.45
48874;BME280;66155;46.204;5.220;2024-01-27T14:29:29;100252.25;;;7.45;76.72
48874;BME280;66155;46.204;5.220;2024-01-27T14:34:29;100247.94;;;7.55;76.62
48874;BME280;66155;46.204;5.220;2024-01-27T14:39:29;100236.50;;;7.49;76.53
48874;BME280;66155;46.204;5.220;2024-01-27T14:44:31;100226.66;;;7.55;76.66
48874;BME280;66155;46.204;5.220;2024-01-27T14:49:32;100228.25;;;7.67;76.37
48874;BME280;66155;46.204;5.220;2024-01-27T14:54:33;100241.66;;;7.68;76.38
48874;BME280;66155;46.204;5.220;2024-01-27T14:59:35;100232.97;;;7.59;76.75
48874;BME280;66155;46.204;5.220;2024-01-27T15:04:35;100223.91;;;7.48;76.68
48874;BME280;66155;46.204;5.220;2024-01-27T15:09:36;100224.69;;;7.41;76.34
48874;BME280;66155;46.204;5.220;2024-01-27T15:14:37;100215.22;;;7.39;76.63
48874;BME280;66155;46.204;5.220;2024-01-27T15:19:38;100207.75;;;7.43;76.83
48874;BME280;66155;46.204;5.220;2024-01-27T15:24:38;100207.75;;;7.36;76.53
48874;BME280;66155;46.204;5.220;2024-01-27T15:29:39;100228.16;;;7.17;76.61
48874;BME280;66155;46.204;5.220;2024-01-27T15:34:40;100219.88;;;6.99;77.08
48874;BME280;66155;46.204;5.220;2024-01-27T15:39:40;100215.13;;;6.96;77.18
48874;BME280;66155;46.204;5.220;2024-01-27T15:44:43;100203.72;;;6.94;76.90
48874;BME280;66155;46.204;5.220;2024-01-27T15:49:44;100209.22;;;6.91;76.96
48874;BME280;66155;46.204;5.220;2024-01-27T15:54:44;100206.47;;;6.98;77.16
48874;BME280;66155;46.204;5.220;2024-01-27T15:59:48;100199.81;;;7.06;76.79
48874;BME280;66155;46.204;5.220;2024-01-27T16:04:48;100216.31;;;6.99;76.65
48874;BME280;66155;46.204;5.220;2024-01-27T16:09:49;100211.19;;;6.94;76.72
48874;BME280;66155;46.204;5.220;2024-01-27T16:14:50;100217.09;;;6.96;76.97
48874;BME280;66155;46.204;5.220;2024-01-27T16:19:51;100211.19;;;6.97;76.86
48874;BME280;66155;46.204;5.220;2024-01-27T16:24:53;100215.53;;;7.02;76.67
48874;BME280;66155;46.204;5.220;2024-01-27T16:29:54;100212.78;;;6.98;76.62
48874;BME280;66155;46.204;5.220;2024-01-27T16:34:54;100211.19;;;6.94;76.68
48874;BME280;66155;46.204;5.220;2024-01-27T16:39:55;100217.84;;;6.82;76.84
48874;BME280;66155;46.204;5.220;2024-01-27T16:44:55;100223.25;;;6.57;77.07
48874;BME280;66155;46.204;5.220;2024-01-27T16:49:56;100225.50;;;6.41;77.44
48874;BME280;66155;46.204;5.220;2024-01-27T16:54:56;100225.03;;;6.29;77.55
48874;BME280;66155;46.204;5.220;2024-01-27T16:59:57;100221.47;;;6.21;78.08
48874;BME280;66155;46.204;5.220;2024-01-27T17:04:57;100230.53;;;6.29;77.58
48874;BME280;66155;46.204;5.220;2024-01-27T17:10:03;100222.75;;;6.41;77.34
48874;BME280;66155;46.204;5.220;2024-01-27T17:15:05;100229.53;;;6.54;77.26
48874;BME280;66155;46.204;5.220;2024-01-27T17:20:06;100231.13;;;6.59;76.95
48874;BME280;66155;46.204;5.220;2024-01-27T17:25:08;100225.66;;;6.66;77.02
48874;BME280;66155;46.204;5.220;2024-01-27T17:30:09;100235.09;;;6.72;76.92
48874;BME280;66155;46.204;5.220;2024-01-27T17:35:10;100240.66;;;6.79;76.77
48874;BME280;66155;46.204;5.220;2024-01-27T17:40:10;100226.47;;;6.74;77.09
48874;BME280;66155;46.204;5.220;2024-01-27T17:45:11;100224.88;;;6.73;77.38
48874;BME280;66155;46.204;5.220;2024-01-27T17:50:12;100235.09;;;6.72;77.46
48874;BME280;66155;46.204;5.220;2024-01-27T17:55:13;100229.56;;;6.69;77.57
48874;BME280;66155;46.204;5.220;2024-01-27T18:00:14;100222.53;;;6.75;77.43
48874;BME280;66155;46.204;5.220;2024-01-27T18:05:17;100222.47;;;6.68;77.47
48874;BME280;66155;46.204;5.220;2024-01-27T18:10:17;100211.06;;;6.62;77.89
48874;BME280;66155;46.204;5.220;2024-01-27T18:15:17;100223.28;;;6.72;77.53
48874;BME280;66155;46.204;5.220;2024-01-27T18:20:18;100226.84;;;6.76;77.48
48874;BME280;66155;46.204;5.220;2024-01-27T18:25:18;100213.06;;;6.72;77.41
48874;BME280;66155;46.204;5.220;2024-01-27T18:30:19;100215.00;;;6.65;77.66
48874;BME280;66155;46.204;5.220;2024-01-27T18:35:19;100215.00;;;6.61;77.93
48874;BME280;66155;46.204;5.220;2024-01-27T18:40:20;100222.06;;;6.55;77.73
48874;BME280;66155;46.204;5.220;2024-01-27T18:45:21;100218.97;;;6.67;77.58
48874;BME280;66155;46.204;5.220;2024-01-27T18:50:22;100213.84;;;6.69;77.75
48874;BME280;66155;46.204;5.220;2024-01-27T18:55:22;100209.84;;;6.56;77.81
48874;BME280;66155;46.204;5.220;2024-01-27T19:00:25;100214.56;;;6.52;77.70
48874;BME280;66155;46.204;5.220;2024-01-27T19:05:26;100226.72;;;6.47;77.62
48874;BME280;66155;46.204;5.220;2024-01-27T19:10:27;100226.66;;;6.37;77.66
48874;BME280;66155;46.204;5.220;2024-01-27T19:15:27;100225.03;;;6.29;78.10
48874;BME280;66155;46.204;5.220;2024-01-27T19:20:28;100223.44;;;6.24;78.08
48874;BME280;66155;46.204;5.220;2024-01-27T19:25:29;100230.91;;;6.27;77.63
48874;BME280;66155;46.204;5.220;2024-01-27T19:30:30;100217.16;;;6.27;77.58
48874;BME280;66155;46.204;5.220;2024-01-27T19:35:31;100226.22;;;6.28;77.59
48874;BME280;66155;46.204;5.220;2024-01-27T19:40:31;100217.91;;;6.21;77.54
48874;BME280;66155;46.204;5.220;2024-01-27T19:45:32;100234.06;;;6.22;77.69
48874;BME280;66155;46.204;5.220;2024-01-27T19:50:33;100230.06;;;6.13;77.71
48874;BME280;66155;46.204;5.220;2024-01-27T19:55:34;100221.44;;;6.14;77.81
48874;BME280;66155;46.204;5.220;2024-01-27T20:00:34;100219.00;;;6.05;77.97
48874;BME280;66155;46.204;5.220;2024-01-27T20:05:35;100219.84;;;6.13;77.93
48874;BME280;66155;46.204;5.220;2024-01-27T20:10:35;100222.25;;;6.18;77.94
48874;BME280;66155;46.204;5.220;2024-01-27T20:15:36;100213.53;;;6.13;77.97
48874;BME280;66155;46.204;5.220;2024-01-27T20:20:36;100206.38;;;5.97;78.45
48874;BME280;66155;46.204;5.220;2024-01-27T20:25:38;100212.94;;;5.86;78.76
48874;BME280;66155;46.204;5.220;2024-01-27T20:30:39;100222.78;;;5.87;78.44
48874;BME280;66155;46.204;5.220;2024-01-27T20:35:39;100211.31;;;5.78;78.54
48874;BME280;66155;46.204;5.220;2024-01-27T20:40:40;100216.72;;;5.71;79.30
48874;BME280;66155;46.204;5.220;2024-01-27T20:45:41;100219.56;;;5.78;78.51
48874;BME280;66155;46.204;5.220;2024-01-27T20:50:41;100207.81;;;5.84;78.77
48874;BME280;66155;46.204;5.220;2024-01-27T20:55:42;100199.56;;;5.84;78.88
48874;BME280;66155;46.204;5.220;2024-01-27T21:00:42;100225.06;;;5.78;79.06
48874;BME280;66155;46.204;5.220;2024-01-27T21:05:44;100223.09;;;5.78;79.11
48874;BME280;66155;46.204;5.220;2024-01-27T21:10:45;100220.28;;;5.71;79.38
48874;BME280;66155;46.204;5.220;2024-01-27T21:15:45;100227.81;;;5.78;78.70
48874;BME280;66155;46.204;5.220;2024-01-27T21:20:46;100214.53;;;5.87;78.41
48874;BME280;66155;46.204;5.220;2024-01-27T21:25:46;100216.59;;;6.00;78.37
48874;BME280;66155;46.204;5.220;2024-01-27T21:30:47;100216.97;;;5.99;78.00
48874;BME280;66155;46.204;5.220;2024-01-27T21:35:47;100209.91;;;5.94;78.02
48874;BME280;66155;46.204;5.220;2024-01-27T21:40:48;100211.03;;;5.86;78.65
48874;BME280;66155;46.204;5.220;2024-01-27T21:45:48;100200.03;;;5.90;78.40
48874;BME280;66155;46.204;5.220;2024-01-27T21:50:49;100200.88;;;5.97;78.28
48874;BME280;66155;46.204;5.220;2024-01-27T21:55:50;100209.13;;;5.97;78.14
48874;BME280;66155;46.204;5.220;2024-01-27T22:00:51;100209.13;;;5.94;78.17
48874;BME280;66155;46.204;5.220;2024-01-27T22:05:51;100203.22;;;5.99;77.91
48874;BME280;66155;46.204;5.220;2024-01-27T22:10:52;100206.75;;;5.96;78.11
48874;BME280;66155;46.204;5.220;2024-01-27T22:15:52;100198.38;;;5.78;78.34
48874;BME280;66155;46.204;5.220;2024-01-27T22:20:53;100188.09;;;5.75;78.70
48874;BME280;66155;46.204;5.220;2024-01-27T22:25:55;100182.59;;;5.75;78.39
48874;BME280;66155;46.204;5.220;2024-01-27T22:30:57;100178.16;;;5.56;79.12
48874;BME280;66155;46.204;5.220;2024-01-27T22:35:58;100180.03;;;5.45;79.17
48874;BME280;66155;46.204;5.220;2024-01-27T22:40:59;100178.03;;;5.42;79.24
48874;BME280;66155;46.204;5.220;2024-01-27T22:46:01;100184.25;;;5.36;79.36
48874;BME280;66155;46.204;5.220;2024-01-27T22:51:01;100191.69;;;5.35;79.40
48874;BME280;66155;46.204;5.220;2024-01-27T22:56:02;100178.81;;;5.43;79.24
48874;BME280;66155;46.204;5.220;2024-01-27T23:01:03;100174.25;;;5.61;78.74
48874;BME280;66155;46.204;5.220;2024-01-27T23:06:03;100172.41;;;5.76;78.43
48874;BME280;66155;46.204;5.220;2024-01-27T23:11:04;100170.53;;;5.87;77.86
48874;BME280;66155;46.204;5.220;2024-01-27T23:16:04;100169.41;;;5.91;77.78
48874;BME280;66155;46.204;5.220;2024-01-27T23:21:05;100168.66;;;5.98;77.66
48874;BME280;66155;46.204;5.220;2024-01-27T23:26:05;100171.03;;;6.03;77.81
48874;BME280;66155;46.204;5.220;2024-01-27T23:31:06;100165.97;;;6.05;77.88
48874;BME280;66155;46.204;5.220;2024-01-27T23:36:06;100159.63;;;5.94;78.16
48874;BME280;66155;46.204;5.220;2024-01-27T23:41:08;100172.59;;;5.97;78.32
48874;BME280;66155;46.204;5.220;2024-01-27T23:46:08;100167.03;;;5.86;78.52
48874;BME280;66155;46.204;5.220;2024-01-27T23:51:09;100165.03;;;5.87;78.24
48874;BME280;66155;46.204;5.220;2024-01-27T23:56:12;100152.81;;;5.81;78.33
